Norfolk, Virginia
Traffic Map
Current Weather Conditions
Norfolk, Virginia
Clear
Clear
60°
Feels Like: 60°
Wind Chill: 60° Ceiling: Unl
Heat Index: 60° Visibility: 10mi
Dew Point: 45° Wind: 10mph
Humidity: 57% Direction: 340° (NNW)
Pressure: 30.1in Gusts: 0mph
Raw Report DataKORF 221251Z AUTO 34009KT 10SM CLR 16/07 A3010 RMK AO2 SLP192 T01560072 TSNO
Traffic Incident Summary
Active as of:
Severity:
Category:
InformationThere was an issue retrieving the traffic information for this location. Please try a different location or try again shortly.
Advertisements
Track Severe Weather on mobile